Aérodrome :
LOGIN :

S'inscrire | Disclaimer

   EN    FR    IT 

 










Légende :    VFR   VFR Marginal   IFR   IFR Intensif   IFR Très Intensif
Visi : 
Plafond : 
>= 8 km
>= 3000ft
5 à 8 km
1000 à 3000 ft
1500m à 5 km
500 à 1000 ft
800 à 1500m
200 à 500 ft
< 800m
< 200 ft
Symboles :   Orages  Brouillard  Fortes neiges  Fortes précipitations  Vent > 20 kt
SIGMETs :   Divers  Orages  Givrage  Turbulence  Onde Orograph.  Cendres Volcan.







- Altitude de l'aérodrome : 33 ft
- Code IATA : MHZ


EGUN - RAF Mildenhall

DERNIER METAR :
  • 170451Z AUTO 28004KT 9999 BKN034 08/08 A3020 RMK AO2 RAB26E36RAB37E39 SLP230 RVRNO $

METARs EXPIRÉS :
  • 170357Z 05004KT 9999 SCT036 09/08 A3019 RMK SLPNO WND DATA ESTMD ALSTG ESTMD RVRNO .
  • 170304Z AUTO 31005KT 9999 OVC034 10/10 A3020 RMK AO2 DZB0257E04 SLP230 $
  • 170257Z AUTO 31006KT 9999 -DZ BKN033 10/10 A3020 RMK AO2 DZB57 SLP230 $
  • 170212Z AUTO 32006KT 9999 -RA BKN032 10/10 A3020 RMK AO2 RAB12 SLP230 $
  • 170156Z AUTO 30007KT 9999 BKN034 09/09 A3020 RMK AO2 SLP230 T00930093 $

TAF TAF EGUN
Valide du 17 à 04h jusqu'au 18 à 10h UTC


170400Z 1704/1810 33006KT 9999 BKN030 QNH3022INS
TEMPO 1704/1706 5000 BR
BECMG 1706/1707 35010G15KT 9999 BKN040 QNH3026INS
BECMG 1717/1718 03006KT 9999 SCT030 QNH3035INS
BECMG 1802/1803 30006KT 9999 FEW030 SCT080 QNH3041INS TX14/1713Z TN06/1803Z
Pas de NOTAMs connus pour ce terrain.



MET'MAP, la Météo Aéronautique d'un coup d'oeil ! - Copyright ORBIFLY Décembre 2007 - Disclaimer

ORBIFLY MET'MAP TEAM :

Programmation & Développement : Alexandra Zaïnal
Conception & Développement : Baudouin d'Aumeries
Co-Programmation & Développement : Marc-Olivier Méhu
Soutien technique & logistique : Manuel Goepfert

Contact : metmap@orbifly.com




SOURCES & CREDITS :

   NOAA